Time;durP1;ratioP1;P1;durP2;ratioP2;P2;SDS_P1;SDS_P2;PMS_P1;PMS_P2;Temp;Humidity;BMP_temperature;BMP_pressure;BME280_temperature;BME280_humidity;BME280_pressure;Samples;Min_cycle;Max_cycle;Signal;HPM_P1;HPM_P2
2021/10/07 00:00:45;;;;;;;8.77;5.75;;;;;;;9.57;86.55;101068.59;8549723;34;20189;-77
2021/10/07 00:05:51;;;;;;;8.43;5.47;;;;;;;9.57;86.97;101075.75;8547653;34;20373;-77
2021/10/07 00:10:54;;;;;;;9.52;5.40;;;;;;;9.51;86.34;101074.34;8569770;34;20562;-75
2021/10/07 00:15:58;;;;;;;8.45;5.60;;;;;;;9.43;86.33;101082.88;8552626;34;20428;-76
2021/10/07 00:21:02;;;;;;;8.98;5.97;;;;;;;9.34;86.44;101094.22;8552875;34;20189;-76
2021/10/07 00:26:05;;;;;;;9.85;5.82;;;;;;;9.28;86.54;101098.16;8551488;34;20221;-75
2021/10/07 00:31:15;;;;;;;8.60;5.50;;;;;;;9.25;86.74;101098.34;8554068;34;20706;-77
2021/10/07 00:36:34;;;;;;;9.75;6.20;;;;;;;9.38;86.81;101106.47;8524916;34;20805;-76
2021/10/07 00:41:42;;;;;;;9.13;5.88;;;;;;;9.49;86.91;101103.94;8551220;34;20138;-76
2021/10/07 00:46:47;;;;;;;10.20;5.85;;;;;;;9.54;86.86;101108.13;8562933;34;20236;-77
2021/10/07 00:51:53;;;;;;;8.38;5.45;;;;;;;9.56;87.01;101116.94;8547651;34;20320;-75
2021/10/07 00:56:57;;;;;;;8.18;5.30;;;;;;;9.63;86.97;101113.78;8544826;34;20174;-76
2021/10/07 01:02:05;;;;;;;7.25;4.78;;;;;;;9.67;87.15;101122.47;8547291;34;20965;-77
2021/10/07 01:07:10;;;;;;;7.97;5.65;;;;;;;9.60;86.47;101118.47;8552746;34;20197;-74
2021/10/07 01:12:14;;;;;;;8.95;5.90;;;;;;;9.43;86.03;101124.94;8551478;34;20213;-77
2021/10/07 01:17:20;;;;;;;8.50;5.95;;;;;;;9.26;86.43;101120.66;8554748;34;20185;-76
2021/10/07 01:22:27;;;;;;;7.95;5.47;;;;;;;9.25;86.55;101126.97;8550802;34;20277;-77
2021/10/07 01:27:35;;;;;;;10.65;6.60;;;;;;;9.23;86.29;101131.56;8525646;34;20147;-78
2021/10/07 01:32:40;;;;;;;12.90;6.95;;;;;;;8.99;86.26;101132.16;8551708;34;20728;-77
2021/10/07 01:37:45;;;;;;;11.52;6.75;;;;;;;8.54;87.85;101144.75;8550512;34;20166;-77
2021/10/07 01:42:48;;;;;;;8.27;5.18;;;;;;;8.67;87.03;101147.56;8549254;34;20190;-76
2021/10/07 01:47:52;;;;;;;9.68;6.40;;;;;;;8.69;86.71;101150.97;8546862;34;20548;-77
2021/10/07 01:52:56;;;;;;;11.45;7.18;;;;;;;8.81;87.02;101162.78;8549475;34;20322;-76
2021/10/07 01:57:59;;;;;;;10.05;6.70;;;;;;;8.92;86.94;101165.66;8549096;34;20722;-76
2021/10/07 02:03:04;;;;;;;12.13;7.72;;;;;;;9.02;86.97;101173.97;8549252;34;20182;-76
2021/10/07 02:08:08;;;;;;;12.45;7.50;;;;;;;9.14;86.89;101173.22;8549791;34;20889;-77
2021/10/07 02:13:11;;;;;;;12.60;7.53;;;;;;;9.14;86.78;101178.59;8549003;34;20194;-77
2021/10/07 02:18:14;;;;;;;14.00;8.18;;;;;;;9.14;86.61;101185.78;8549753;34;20437;-76
2021/10/07 02:23:19;;;;;;;12.00;7.95;;;;;;;9.05;86.71;101184.50;8548543;34;20465;-77
2021/10/07 02:28:22;;;;;;;12.13;7.32;;;;;;;9.04;86.67;101191.69;8548487;34;20187;-77
2021/10/07 02:33:25;;;;;;;17.85;9.70;;;;;;;9.15;86.71;101192.84;8548977;34;20182;-77
2021/10/07 02:38:29;;;;;;;15.02;8.90;;;;;;;9.18;86.68;101196.19;8548113;34;20292;-77
2021/10/07 02:43:32;;;;;;;15.63;8.65;;;;;;;9.18;86.60;101201.56;8547092;34;20177;-76
2021/10/07 02:48:35;;;;;;;12.32;7.75;;;;;;;9.25;86.90;101204.72;8548164;34;20146;-77
2021/10/07 02:53:40;;;;;;;15.07;8.20;;;;;;;9.30;86.62;101205.31;8547568;34;20138;-76
2021/10/07 02:58:43;;;;;;;14.07;8.45;;;;;;;9.34;86.67;101206.81;8547876;34;20883;-76
2021/10/07 03:03:47;;;;;;;12.90;8.30;;;;;;;9.39;86.66;101210.09;8548124;34;20689;-76
2021/10/07 03:08:51;;;;;;;17.50;9.43;;;;;;;9.43;86.70;101224.16;8524327;34;20186;-76
2021/10/07 03:13:54;;;;;;;15.05;8.20;;;;;;;9.47;87.16;101233.75;8547325;34;20452;-76
2021/10/07 03:18:57;;;;;;;12.77;8.05;;;;;;;9.45;86.60;101239.19;8547694;34;20212;-76
2021/10/07 03:24:02;;;;;;;18.38;9.50;;;;;;;9.50;86.67;101247.81;8547182;34;20281;-76
2021/10/07 03:29:05;;;;;;;18.40;10.35;;;;;;;9.45;86.26;101249.91;8548107;34;20193;-76
2021/10/07 03:34:08;;;;;;;16.58;9.18;;;;;;;9.37;86.59;101260.25;8547395;34;20188;-76
2021/10/07 03:39:12;;;;;;;18.08;10.07;;;;;;;9.37;86.89;101270.13;8547442;34;20190;-76
2021/10/07 03:44:16;;;;;;;15.05;8.80;;;;;;;9.32;86.38;101286.50;8546193;34;20177;-76
2021/10/07 03:49:19;;;;;;;13.55;8.77;;;;;;;9.21;86.26;101283.59;8524765;34;20189;-75
2021/10/07 03:54:23;;;;;;;14.02;8.00;;;;;;;9.17;86.24;101290.97;8543360;34;20681;-75
2021/10/07 03:59:26;;;;;;;14.38;8.20;;;;;;;9.17;86.40;101306.22;8544862;34;20197;-75
2021/10/07 04:04:29;;;;;;;12.40;7.22;;;;;;;9.19;86.58;101315.03;8545007;34;20259;-75
2021/10/07 04:09:34;;;;;;;13.52;7.38;;;;;;;9.20;86.62;101319.44;8545124;34;20285;-74
2021/10/07 04:14:37;;;;;;;12.18;8.60;;;;;;;9.26;86.59;101333.31;8545701;34;20284;-75
2021/10/07 04:19:40;;;;;;;13.75;7.97;;;;;;;9.31;86.41;101338.41;8545733;34;20526;-76
2021/10/07 04:24:45;;;;;;;14.35;8.00;;;;;;;9.34;86.55;101351.63;8544007;34;20531;-76
2021/10/07 04:29:52;;;;;;;13.43;8.15;;;;;;;9.40;86.48;101361.13;8547457;34;20182;-76
2021/10/07 04:34:55;;;;;;;12.93;7.97;;;;;;;9.31;86.01;101378.63;8545128;34;20189;-76
2021/10/07 04:39:59;;;;;;;13.07;8.10;;;;;;;9.32;86.49;101376.81;8544375;34;21127;-76
2021/10/07 04:45:03;;;;;;;14.80;8.50;;;;;;;9.41;86.54;101373.59;8543873;34;20146;-76
2021/10/07 04:50:08;;;;;;;13.60;8.18;;;;;;;9.46;86.20;101383.06;8543405;34;20244;-76
2021/10/07 04:55:12;;;;;;;14.07;8.35;;;;;;;9.32;86.14;101388.38;8543943;34;20182;-75
2021/10/07 05:00:15;;;;;;;16.55;8.35;;;;;;;9.43;86.65;101403.84;8543964;34;20588;-76
2021/10/07 05:05:18;;;;;;;14.80;8.55;;;;;;;9.55;86.44;101397.75;8545985;34;20186;-76
2021/10/07 05:10:23;;;;;;;15.82;8.82;;;;;;;9.56;85.69;101409.34;8523762;34;20706;-75
2021/10/07 05:15:26;;;;;;;15.35;8.68;;;;;;;9.48;86.19;101407.97;8492125;34;20190;-75
2021/10/07 05:20:29;;;;;;;16.83;8.80;;;;;;;9.54;86.38;101419.28;8492358;34;20395;-76
2021/10/07 05:25:34;;;;;;;18.05;8.80;;;;;;;9.60;86.03;101426.94;8468479;34;20238;-75
2021/10/07 05:30:37;;;;;;;15.48;9.27;;;;;;;9.61;85.70;101431.38;8492467;34;20198;-76
2021/10/07 05:35:40;;;;;;;16.15;8.48;;;;;;;9.34;85.94;101425.84;8493720;34;20460;-75
2021/10/07 05:40:45;;;;;;;15.93;8.90;;;;;;;9.46;85.81;101442.09;8521969;33;20350;-76
2021/10/07 05:45:48;;;;;;;15.32;8.95;;;;;;;9.60;85.59;101437.69;8589367;33;20458;-76
2021/10/07 05:50:51;;;;;;;6.10;3.33;;;;;;;9.70;85.89;101446.91;8604437;33;20236;-76
2021/10/07 05:55:56;;;;;;;12.55;6.50;;;;;;;9.88;86.09;101453.03;8603515;33;20181;-76
2021/10/07 06:00:59;;;;;;;13.73;8.50;;;;;;;10.02;85.67;101468.28;8603909;33;20285;-76
2021/10/07 06:06:02;;;;;;;15.18;8.27;;;;;;;10.08;85.29;101466.06;8604055;33;20176;-76
2021/10/07 06:11:07;;;;;;;11.48;6.80;;;;;;;9.98;84.81;101464.03;8603217;33;21089;-75
2021/10/07 06:16:10;;;;;;;11.93;7.40;;;;;;;9.99;84.72;101472.03;8603880;33;21510;-76
2021/10/07 06:21:13;;;;;;;12.55;6.35;;;;;;;10.03;84.48;101473.53;8604272;33;20464;-76
2021/10/07 06:26:35;;;;;;;10.80;6.90;;;;;;;10.27;84.61;101487.28;8579535;33;20161;-75
2021/10/07 06:31:39;;;;;;;13.15;6.85;;;;;;;10.41;84.16;101491.78;8603412;33;20280;-76
2021/10/07 06:36:42;;;;;;;12.10;6.97;;;;;;;10.54;84.10;101495.44;8602995;33;20185;-75
2021/10/07 06:41:47;;;;;;;12.40;6.95;;;;;;;10.50;82.95;101506.44;8579358;33;20192;-76
2021/10/07 06:46:50;;;;;;;8.85;6.32;;;;;;;10.48;82.78;101511.94;8578785;33;22039;-76
2021/10/07 06:51:53;;;;;;;12.70;7.82;;;;;;;10.39;82.54;101525.94;8603340;33;20705;-76
2021/10/07 06:56:58;;;;;;;12.23;7.25;;;;;;;10.49;82.47;101526.22;8601488;33;20203;-76
2021/10/07 07:02:02;;;;;;;15.13;7.03;;;;;;;10.68;82.09;101524.09;8603390;33;20191;-76
2021/10/07 07:07:05;;;;;;;10.57;6.43;;;;;;;10.89;82.09;101535.31;8603033;33;20681;-75
2021/10/07 07:12:09;;;;;;;10.40;6.60;;;;;;;11.23;81.72;101554.69;8603116;33;20201;-76
2021/10/07 07:17:13;;;;;;;13.85;7.70;;;;;;;11.41;80.82;101547.22;8602155;33;21002;-76
2021/10/07 07:22:16;;;;;;;12.98;7.43;;;;;;;11.57;80.26;101560.50;8578402;33;20944;-76
2021/10/07 07:27:21;;;;;;;12.63;8.13;;;;;;;11.78;79.72;101555.53;8570744;33;20868;-76
2021/10/07 07:32:24;;;;;;;15.43;9.23;;;;;;;11.94;78.67;101562.44;8572300;33;21128;-75
2021/10/07 07:37:28;;;;;;;15.18;9.65;;;;;;;12.03;78.11;101576.25;8572053;33;20200;-75
2021/10/07 07:42:32;;;;;;;17.20;8.85;;;;;;;11.99;78.19;101572.06;8560150;33;20277;-76
2021/10/07 07:47:41;;;;;;;18.98;11.35;;;;;;;11.56;77.67;101577.63;8549518;34;20237;-76
2021/10/07 07:52:44;;;;;;;14.15;8.35;;;;;;;11.73;78.17;101582.75;8569634;33;20200;-75
2021/10/07 07:57:48;;;;;;;17.98;10.60;;;;;;;11.51;78.60;101586.00;8572140;33;20457;-76
2021/10/07 08:02:51;;;;;;;26.85;13.73;;;;;;;11.40;78.75;101596.59;8573473;33;20185;-76
2021/10/07 08:07:55;;;;;;;23.95;12.60;;;;;;;11.58;78.91;101594.56;8531794;33;20241;-76
2021/10/07 08:13:01;;;;;;;24.60;12.80;;;;;;;12.06;77.56;101598.44;8545023;34;20194;-77
2021/10/07 08:18:04;;;;;;;28.05;14.57;;;;;;;12.52;76.68;101595.31;8543543;34;20155;-75
2021/10/07 08:23:07;;;;;;;27.35;15.38;;;;;;;12.67;75.69;101598.78;8544505;34;20313;-76
2021/10/07 08:28:12;;;;;;;29.60;16.08;;;;;;;13.00;73.88;101603.59;8544218;34;20249;-76
2021/10/07 08:33:15;;;;;;;34.53;19.23;;;;;;;12.96;72.87;101612.84;8545007;34;20192;-75
2021/10/07 08:38:19;;;;;;;34.63;19.92;;;;;;;13.15;73.64;101607.00;8544077;34;20185;-77
2021/10/07 08:43:26;;;;;;;43.72;24.45;;;;;;;12.93;71.98;101623.88;8542450;34;20193;-75
2021/10/07 08:48:29;;;;;;;35.97;20.52;;;;;;;12.99;72.30;101620.72;8542664;34;20184;-74
2021/10/07 08:53:32;;;;;;;36.85;20.48;;;;;;;13.15;72.00;101614.22;8508906;34;20211;-76
2021/10/07 08:58:37;;;;;;;37.90;20.80;;;;;;;13.07;71.16;101625.56;8566217;33;20192;-76
2021/10/07 09:03:42;;;;;;;27.90;15.52;;;;;;;13.05;70.64;101625.69;8554398;33;20209;-76
2021/10/07 09:08:49;;;;;;;25.70;14.60;;;;;;;13.82;70.87;101622.78;8545280;34;20174;-76
2021/10/07 09:14:01;;;;;;;27.02;14.25;;;;;;;13.69;68.10;101625.53;8544470;34;20288;-76
2021/10/07 09:19:18;;;;;;;29.15;15.38;;;;;;;13.69;68.60;101628.22;8520174;34;20642;-76
2021/10/07 09:24:39;;;;;;;30.00;16.75;;;;;;;13.56;68.68;101635.50;8545185;34;20192;-75
2021/10/07 09:29:49;;;;;;;22.20;12.57;;;;;;;13.51;68.29;101624.19;8543565;34;20262;-75
2021/10/07 09:34:53;;;;;;;32.38;17.52;;;;;;;13.45;68.22;101633.59;8543253;34;20266;-75
2021/10/07 09:40:03;;;;;;;31.73;16.52;;;;;;;13.53;67.79;101637.59;8519572;34;20476;-75
2021/10/07 09:45:14;;;;;;;25.85;13.40;;;;;;;13.37;67.27;101645.94;8542788;34;20657;-75
2021/10/07 09:50:25;;;;;;;29.65;15.15;;;;;;;13.93;66.92;101655.25;8544379;34;22054;-75
2021/10/07 09:55:35;;;;;;;30.33;15.65;;;;;;;14.41;65.09;101640.81;8547462;34;20193;-75
2021/10/07 10:00:43;;;;;;;27.35;13.00;;;;;;;14.98;63.49;101639.94;8548029;34;20474;-75
2021/10/07 10:05:48;;;;;;;21.77;10.88;;;;;;;14.58;61.21;101639.50;8544396;34;21528;-75
2021/10/07 10:10:53;;;;;;;26.30;13.18;;;;;;;14.24;63.63;101655.63;8544618;34;20277;-73
2021/10/07 10:15:57;;;;;;;23.83;11.77;;;;;;;14.16;63.50;101655.34;8543680;34;20189;-76
2021/10/07 10:21:04;;;;;;;25.08;12.68;;;;;;;13.75;65.70;101656.63;8546900;34;20632;-76
2021/10/07 10:26:13;;;;;;;21.77;12.30;;;;;;;14.09;64.58;101651.38;8545590;34;20552;-75
2021/10/07 10:31:26;;;;;;;23.33;12.32;;;;;;;14.44;63.32;101667.63;8547337;34;20193;-75
2021/10/07 10:36:35;;;;;;;23.17;12.07;;;;;;;15.19;62.59;101660.81;8549125;34;20178;-75
2021/10/07 10:41:48;;;;;;;22.58;13.20;;;;;;;16.10;58.72;101660.53;8525536;34;20597;-75
2021/10/07 10:47:00;;;;;;;19.77;11.48;;;;;;;15.84;57.32;101665.44;8546747;34;20623;-75
2021/10/07 10:52:13;;;;;;;16.67;11.07;;;;;;;17.09;54.04;101673.78;8546833;34;20643;-75
2021/10/07 10:57:28;;;;;;;15.65;8.63;;;;;;;16.94;53.04;101676.00;8546008;34;20907;-76
2021/10/07 11:02:33;;;;;;;12.20;7.65;;;;;;;16.58;54.04;101679.06;8545979;34;20239;-75
2021/10/07 11:07:36;;;;;;;16.00;9.02;;;;;;;17.93;50.02;101679.75;8546394;34;20706;-76
2021/10/07 11:12:55;;;;;;;14.63;9.20;;;;;;;18.44;49.85;101686.84;8545470;34;20145;-75
2021/10/07 11:18:00;;;;;;;14.10;8.32;;;;;;;16.82;51.01;101696.94;8522655;34;20240;-73
2021/10/07 11:23:11;;;;;;;13.10;8.07;;;;;;;18.21;49.30;101693.56;8522250;34;20651;-76
2021/10/07 11:28:17;;;;;;;11.88;7.82;;;;;;;19.57;46.04;101685.09;8546248;34;20853;-76
2021/10/07 11:33:25;;;;;;;10.35;6.85;;;;;;;19.55;45.35;101692.53;8546174;34;20597;-75
2021/10/07 11:38:28;;;;;;;16.10;8.93;;;;;;;18.08;48.44;101694.72;8545547;34;20146;-75
2021/10/07 11:43:33;;;;;;;11.32;6.45;;;;;;;16.74;50.80;101691.31;8545444;34;20651;-76
2021/10/07 11:48:38;;;;;;;12.75;7.10;;;;;;;17.32;51.04;101690.78;8521809;34;20828;-75
2021/10/07 11:53:43;;;;;;;10.30;6.75;;;;;;;18.34;49.31;101692.25;8544966;34;20643;-76
2021/10/07 11:58:51;;;;;;;8.98;5.55;;;;;;;18.12;49.00;101689.84;8545267;34;20684;-75
2021/10/07 12:03:58;;;;;;;10.65;6.35;;;;;;;20.86;42.89;101683.75;8545703;34;20224;-75
2021/10/07 12:09:02;;;;;;;8.50;5.72;;;;;;;19.48;44.97;101689.56;8545242;34;20244;-76
2021/10/07 12:14:05;;;;;;;9.98;6.55;;;;;;;19.93;44.32;101683.28;8544602;34;20185;-76
2021/10/07 12:19:18;;;;;;;13.45;12.05;;;;;;;20.11;43.60;101683.31;8544721;34;21456;-75
2021/10/07 12:24:25;;;;;;;7.75;5.13;;;;;;;17.60;47.37;101698.16;8544548;34;20177;-75
2021/10/07 12:29:30;;;;;;;10.80;5.90;;;;;;;16.61;50.28;101696.06;8544764;34;20232;-75
2021/10/07 12:34:37;;;;;;;9.15;5.70;;;;;;;17.46;49.42;101693.97;8544154;34;20200;-75
2021/10/07 12:39:43;;;;;;;10.25;6.22;;;;;;;18.58;45.89;101685.53;8543984;34;20702;-75
2021/10/07 12:44:52;;;;;;;11.32;5.68;;;;;;;17.34;48.22;101691.50;8543716;34;20284;-75
2021/10/07 12:49:58;;;;;;;9.13;6.03;;;;;;;16.59;50.89;101691.66;8544261;34;20209;-75
2021/10/07 12:55:08;;;;;;;14.82;10.55;;;;;;;16.48;51.62;101690.81;8543477;34;20182;-76
2021/10/07 13:00:21;;;;;;;11.55;5.70;;;;;;;19.42;46.39;101687.44;8543527;34;20182;-75
2021/10/07 13:05:28;;;;;;;9.45;5.25;;;;;;;20.43;42.32;101682.78;8543656;34;20239;-75
2021/10/07 13:10:36;;;;;;;8.93;5.07;;;;;;;17.64;47.92;101693.31;8514172;34;20277;-74
2021/10/07 13:15:41;;;;;;;9.68;5.50;;;;;;;17.42;50.12;101687.09;8484105;34;20188;-75
2021/10/07 13:20:47;;;;;;;9.68;4.88;;;;;;;20.21;44.33;101680.47;8486882;34;20193;-75
2021/10/07 13:25:50;;;;;;;8.85;5.35;;;;;;;23.09;37.88;101678.59;8488358;34;20586;-75
2021/10/07 13:30:53;;;;;;;6.97;4.90;;;;;;;20.70;42.37;101689.09;8488496;34;20424;-75
2021/10/07 13:35:58;;;;;;;8.00;5.65;;;;;;;18.95;45.30;101690.19;8505174;34;20461;-75
2021/10/07 13:41:01;;;;;;;7.47;5.13;;;;;;;17.60;47.89;101694.59;8518954;34;20163;-74
2021/10/07 13:46:04;;;;;;;8.02;5.45;;;;;;;16.64;50.03;101693.94;8517590;34;20532;-75
2021/10/07 13:51:09;;;;;;;6.90;4.30;;;;;;;16.56;50.82;101696.44;8517357;34;20186;-75
2021/10/07 13:56:13;;;;;;;8.23;5.07;;;;;;;17.63;48.74;101699.72;8515673;34;20481;-73
2021/10/07 14:01:16;;;;;;;6.68;4.53;;;;;;;17.52;50.11;101695.25;8519297;34;20964;-74
2021/10/07 14:06:21;;;;;;;6.13;4.47;;;;;;;18.32;48.83;101699.72;8515622;34;20964;-74
2021/10/07 14:11:25;;;;;;;5.72;3.88;;;;;;;21.37;45.75;101686.66;8512619;34;20182;-75
2021/10/07 14:16:28;;;;;;;6.35;4.10;;;;;;;24.43;36.47;101688.56;8512479;34;20177;-75
2021/10/07 14:21:33;;;;;;;6.05;4.13;;;;;;;25.03;34.64;101700.56;8493104;34;20147;-76
2021/10/07 14:26:36;;;;;;;5.10;3.90;;;;;;;26.34;33.51;101705.19;8492774;34;20540;-75
2021/10/07 14:31:40;;;;;;;6.43;4.47;;;;;;;26.81;32.56;101692.66;8492040;34;20456;-74
2021/10/07 14:36:44;;;;;;;7.22;4.80;;;;;;;22.74;38.41;101706.25;8491301;34;20199;-75
2021/10/07 14:41:47;;;;;;;7.68;5.00;;;;;;;20.53;42.46;101718.16;8491796;34;20325;-75
2021/10/07 14:46:50;;;;;;;7.78;4.68;;;;;;;18.61;45.85;101711.59;8490596;34;20151;-75
2021/10/07 14:51:55;;;;;;;10.43;6.82;;;;;;;17.49;48.30;101717.28;8490494;34;21899;-75
2021/10/07 14:56:58;;;;;;;8.88;4.95;;;;;;;16.86;49.49;101724.66;8488012;34;20645;-75
2021/10/07 15:02:02;;;;;;;7.85;4.80;;;;;;;16.91;49.86;101725.97;8490422;34;20450;-75
2021/10/07 15:07:09;;;;;;;11.77;7.55;;;;;;;16.69;51.07;101731.53;8489748;34;20926;-75
2021/10/07 15:12:12;;;;;;;9.27;5.50;;;;;;;16.62;52.61;101733.03;8465966;34;20190;-74
2021/10/07 15:17:16;;;;;;;17.83;10.82;;;;;;;16.48;53.12;101732.41;8517720;34;20154;-75
2021/10/07 15:22:21;;;;;;;22.80;12.77;;;;;;;16.25;53.69;101728.00;8520064;34;20309;-75
2021/10/07 15:27:24;;;;;;;11.90;6.28;;;;;;;16.12;54.27;101720.88;8519918;34;20939;-75
2021/10/07 15:32:27;;;;;;;15.75;8.43;;;;;;;16.04;54.77;101728.81;8519192;34;20727;-74
2021/10/07 15:37:32;;;;;;;12.23;7.70;;;;;;;15.99;55.22;101720.22;8503688;34;20248;-74
2021/10/07 15:42:35;;;;;;;6.70;3.78;;;;;;;15.92;55.78;101729.84;8506496;34;20550;-76
2021/10/07 15:47:38;;;;;;;4.90;3.30;;;;;;;15.75;57.93;101722.25;8533769;34;20483;-75
2021/10/07 15:52:43;;;;;;;4.50;3.38;;;;;;;15.44;59.57;101727.41;8544071;34;20554;-75
2021/10/07 15:57:46;;;;;;;5.45;3.55;;;;;;;15.10;60.69;101732.78;8518985;34;21115;-74
2021/10/07 16:02:49;;;;;;;6.75;3.63;;;;;;;14.77;61.39;101733.59;8513096;34;20198;-75
2021/10/07 16:07:55;;;;;;;5.57;4.07;;;;;;;14.59;61.19;101738.59;8494447;34;20237;-74
2021/10/07 16:13:00;;;;;;;8.68;5.35;;;;;;;14.64;61.69;101746.34;8490167;34;20204;-74
2021/10/07 16:18:03;;;;;;;6.35;4.25;;;;;;;14.54;62.59;101746.19;8490162;34;20147;-74
2021/10/07 16:23:08;;;;;;;5.43;4.38;;;;;;;14.52;62.79;101756.25;8490000;34;20971;-74
2021/10/07 16:28:11;;;;;;;6.47;4.38;;;;;;;14.34;62.48;101764.78;8501401;34;20665;-74
2021/10/07 16:33:14;;;;;;;6.90;5.20;;;;;;;13.98;63.06;101770.19;8491259;34;20198;-74
2021/10/07 16:38:19;;;;;;;9.63;5.50;;;;;;;13.74;63.54;101771.03;8488156;34;20147;-74
2021/10/07 16:43:23;;;;;;;10.68;6.03;;;;;;;13.55;63.31;101774.19;8488269;34;20173;-75
2021/10/07 16:48:26;;;;;;;10.68;5.95;;;;;;;13.30;64.05;101780.41;8488069;34;20830;-76
2021/10/07 16:53:33;;;;;;;8.80;5.63;;;;;;;13.13;64.38;101792.38;8487603;34;20191;-75
2021/10/07 16:58:37;;;;;;;8.60;4.68;;;;;;;12.98;65.17;101796.16;8486555;34;20210;-76
2021/10/07 17:03:40;;;;;;;8.68;5.20;;;;;;;12.83;65.77;101800.75;8491488;34;20690;-75
2021/10/07 17:08:45;;;;;;;9.07;5.10;;;;;;;12.65;66.71;101805.59;8491597;34;20155;-75
2021/10/07 17:13:50;;;;;;;9.93;5.22;;;;;;;12.51;67.12;101806.53;8491756;34;20489;-76
2021/10/07 17:18:52;;;;;;;9.55;5.68;;;;;;;12.35;67.72;101812.06;8491224;34;20201;-75
2021/10/07 17:23:57;;;;;;;8.55;5.20;;;;;;;12.24;68.24;101819.09;8492981;34;20198;-76
2021/10/07 17:29:00;;;;;;;10.48;6.95;;;;;;;12.08;68.84;101817.38;8490798;34;20186;-75
2021/10/07 17:34:04;;;;;;;8.93;6.97;;;;;;;11.99;69.32;101815.28;8492136;34;20464;-75
2021/10/07 17:39:08;;;;;;;8.10;5.90;;;;;;;11.86;69.66;101819.72;8468719;34;20190;-75
2021/10/07 17:44:11;;;;;;;12.52;6.75;;;;;;;11.75;70.21;101820.41;8491165;34;20159;-76
2021/10/07 17:49:19;;;;;;;13.60;8.43;;;;;;;11.67;70.85;101828.97;8490755;34;20156;-76
2021/10/07 17:54:24;;;;;;;15.48;8.70;;;;;;;11.46;72.22;101841.06;8491958;34;21581;-74
2021/10/07 17:59:27;;;;;;;14.07;9.23;;;;;;;11.37;72.59;101841.63;8491781;34;20192;-74
2021/10/07 18:04:30;;;;;;;17.23;8.77;;;;;;;11.26;73.12;101847.69;8491071;34;20771;-74
2021/10/07 18:09:37;;;;;;;15.32;9.20;;;;;;;11.31;73.30;101847.41;8519364;34;20190;-75
2021/10/07 18:14:40;;;;;;;15.88;9.32;;;;;;;11.34;73.03;101849.91;8509896;34;20190;-75
2021/10/07 18:19:43;;;;;;;18.17;9.85;;;;;;;11.30;72.82;101854.63;8498422;34;20278;-76
2021/10/07 18:24:47;;;;;;;17.65;12.05;;;;;;;11.25;72.79;101859.41;8519184;34;20256;-76
2021/10/07 18:29:53;;;;;;;17.35;10.60;;;;;;;11.25;73.10;101851.34;8518432;34;20212;-75
2021/10/07 18:34:56;;;;;;;14.52;8.60;;;;;;;11.21;72.93;101863.22;8491021;34;20241;-76
2021/10/07 18:40:00;;;;;;;55.13;26.55;;;;;;;11.08;73.18;101857.72;8468001;34;20218;-75
2021/10/07 18:45:04;;;;;;;19.73;11.45;;;;;;;10.97;73.34;101873.59;8504372;34;20665;-75
2021/10/07 18:50:10;;;;;;;49.92;29.60;;;;;;;10.92;73.70;101870.31;8518431;34;20561;-76
2021/10/07 18:55:15;;;;;;;21.85;14.15;;;;;;;10.83;73.89;101874.41;8494874;34;20480;-74
2021/10/07 19:00:18;;;;;;;23.77;14.80;;;;;;;10.81;74.08;101873.66;8514017;34;20193;-74
2021/10/07 19:05:21;;;;;;;18.05;10.25;;;;;;;10.79;74.30;101886.31;8520804;34;20210;-74
2021/10/07 19:10:27;;;;;;;18.83;12.38;;;;;;;10.77;74.36;101882.81;8516762;34;20151;-75
2021/10/07 19:15:32;;;;;;;19.48;10.82;;;;;;;10.69;74.24;101882.41;8491392;34;20198;-74
2021/10/07 19:20:36;;;;;;;16.48;10.35;;;;;;;10.55;74.60;101875.13;8531216;34;20194;-75
2021/10/07 19:25:40;;;;;;;21.02;14.25;;;;;;;10.37;75.09;101877.94;8544892;34;21347;-74
2021/10/07 19:30:43;;;;;;;26.50;17.15;;;;;;;10.32;75.58;101877.31;8517428;34;20178;-74
2021/10/07 19:35:46;;;;;;;19.08;11.85;;;;;;;10.16;75.89;101880.00;8512703;34;20241;-75
2021/10/07 19:40:51;;;;;;;18.58;13.23;;;;;;;10.17;76.35;101891.59;8489350;34;20568;-75
2021/10/07 19:45:54;;;;;;;19.98;13.38;;;;;;;10.22;76.49;101896.72;8492632;34;20328;-75
2021/10/07 19:50:59;;;;;;;22.05;13.40;;;;;;;10.17;76.29;101896.97;8491985;34;20199;-75
2021/10/07 19:56:05;;;;;;;20.63;11.23;;;;;;;10.08;76.04;101892.97;8468705;34;20194;-75
2021/10/07 20:01:08;;;;;;;18.13;10.80;;;;;;;10.07;75.97;101893.06;8489433;34;20202;-74
2021/10/07 20:06:11;;;;;;;15.88;11.00;;;;;;;10.12;75.87;101890.97;8489337;34;20610;-74
2021/10/07 20:11:16;;;;;;;24.77;12.55;;;;;;;10.11;75.58;101898.19;8491120;34;20474;-75
2021/10/07 20:16:23;;;;;;;16.42;11.20;;;;;;;9.97;75.49;101902.59;8499698;34;21712;-75
2021/10/07 20:21:28;;;;;;;17.73;10.45;;;;;;;9.86;75.64;101903.16;8492772;34;20220;-74
2021/10/07 20:26:35;;;;;;;18.17;12.48;;;;;;;9.85;76.06;101904.09;8509636;34;20206;-75
2021/10/07 20:31:41;;;;;;;20.73;14.13;;;;;;;9.80;76.30;101896.28;8528447;34;21479;-74
2021/10/07 20:42:14;;;;;;;17.70;11.13;;;;;;;9.54;77.13;101915.56;8418995;34;20834;-75
2021/10/07 20:47:19;;;;;;;16.98;11.80;;;;;;;9.40;78.44;101922.50;8430639;34;20483;-75
2021/10/07 20:52:23;;;;;;;19.65;14.00;;;;;;;9.19;79.14;101910.22;8519497;34;20135;-75
2021/10/07 20:57:36;;;;;;;22.17;13.95;;;;;;;9.21;79.22;101911.84;8524213;34;20252;-75
2021/10/07 21:02:45;;;;;;;20.65;12.82;;;;;;;9.22;79.10;101916.28;8511953;34;20220;-75
2021/10/07 21:07:50;;;;;;;21.67;12.73;;;;;;;9.23;79.11;101919.84;8496464;34;20632;-75
2021/10/07 21:12:56;;;;;;;18.70;10.45;;;;;;;9.32;79.10;101921.19;8493509;34;20291;-75
2021/10/07 21:18:02;;;;;;;15.75;9.68;;;;;;;9.38;78.59;101927.13;8469319;34;20554;-75
2021/10/07 21:23:07;;;;;;;16.15;10.07;;;;;;;9.37;78.15;101929.84;8494334;34;20970;-75
2021/10/07 21:28:15;;;;;;;16.63;10.32;;;;;;;9.27;77.70;101932.16;8495265;34;20197;-75
2021/10/07 21:33:23;;;;;;;17.23;10.93;;;;;;;9.14;77.31;101931.03;8551413;34;20365;-75
2021/10/07 21:38:28;;;;;;;19.10;10.85;;;;;;;9.12;77.58;101919.53;8549803;34;21795;-75
2021/10/07 21:43:35;;;;;;;15.25;9.55;;;;;;;9.17;77.46;101917.47;8542416;34;20563;-75
2021/10/07 21:48:38;;;;;;;18.17;10.10;;;;;;;9.20;77.47;101923.53;8548234;34;20189;-75
2021/10/07 21:53:42;;;;;;;16.88;9.95;;;;;;;9.14;77.14;101918.50;8548788;34;20154;-75
2021/10/07 21:58:46;;;;;;;13.82;9.65;;;;;;;8.97;77.30;101919.34;8548453;34;20591;-75
2021/10/07 22:03:49;;;;;;;15.38;9.93;;;;;;;8.87;77.17;101920.75;8548031;34;20205;-74
2021/10/07 22:08:52;;;;;;;16.50;9.85;;;;;;;8.81;77.03;101929.97;8548272;34;20328;-76
2021/10/07 22:13:56;;;;;;;15.38;8.85;;;;;;;8.73;77.25;101933.97;8546358;34;20284;-73
2021/10/07 22:18:59;;;;;;;15.02;9.50;;;;;;;8.66;77.38;101937.88;8547856;34;20320;-76
2021/10/07 22:24:03;;;;;;;11.98;8.50;;;;;;;8.60;77.66;101931.00;8523267;34;20174;-75
2021/10/07 22:29:08;;;;;;;16.05;9.10;;;;;;;8.64;77.24;101932.59;8547695;34;20564;-75
2021/10/07 22:34:11;;;;;;;14.13;8.00;;;;;;;8.56;76.67;101937.47;8548099;34;20446;-74
2021/10/07 22:39:15;;;;;;;13.57;8.05;;;;;;;8.49;77.30;101939.53;8546138;34;20151;-74
2021/10/07 22:44:19;;;;;;;13.60;7.90;;;;;;;8.44;77.44;101944.22;8522087;34;20345;-74
2021/10/07 22:49:22;;;;;;;20.67;8.90;;;;;;;8.42;77.33;101939.88;8546342;34;20201;-76
2021/10/07 22:54:25;;;;;;;13.90;7.65;;;;;;;8.32;77.33;101942.13;8545873;34;20194;-76
2021/10/07 22:59:29;;;;;;;12.57;7.53;;;;;;;8.24;77.65;101941.63;8545672;34;20244;-75
2021/10/07 23:04:32;;;;;;;11.75;8.05;;;;;;;8.18;77.64;101943.63;8544305;34;20182;-74
2021/10/07 23:09:35;;;;;;;12.13;8.00;;;;;;;8.19;77.53;101949.84;8544684;34;20146;-76
2021/10/07 23:14:43;;;;;;;11.70;8.10;;;;;;;8.21;77.42;101934.59;8545443;34;20189;-76
2021/10/07 23:19:46;;;;;;;16.08;8.27;;;;;;;8.25;77.68;101944.22;8545643;34;20576;-76
2021/10/07 23:24:49;;;;;;;15.85;9.27;;;;;;;8.30;77.53;101936.84;8545484;34;20182;-76
2021/10/07 23:29:53;;;;;;;13.05;7.88;;;;;;;8.28;77.71;101941.41;8546006;34;21910;-75